sensor_id;sensor_type;location;lat;lon;timestamp;P1;durP1;ratioP1;P2;durP2;ratioP2
22138;SDS011;25815;52.582;13.408;2023-03-24T00:02:11;4.32;;;2.38;;
22138;SDS011;25815;52.582;13.408;2023-03-24T00:04:37;3.70;;;2.30;;
22138;SDS011;25815;52.582;13.408;2023-03-24T00:07:06;3.55;;;2.40;;
22138;SDS011;25815;52.582;13.408;2023-03-24T00:09:32;5.15;;;2.47;;
22138;SDS011;25815;52.582;13.408;2023-03-24T00:11:58;3.42;;;2.22;;
22138;SDS011;25815;52.582;13.408;2023-03-24T00:14:24;5.00;;;2.58;;
22138;SDS011;25815;52.582;13.408;2023-03-24T00:16:50;5.15;;;2.63;;
22138;SDS011;25815;52.582;13.408;2023-03-24T00:19:17;2.90;;;2.20;;
22138;SDS011;25815;52.582;13.408;2023-03-24T00:21:44;5.50;;;2.70;;
22138;SDS011;25815;52.582;13.408;2023-03-24T00:24:10;4.32;;;2.15;;
22138;SDS011;25815;52.582;13.408;2023-03-24T00:26:37;3.42;;;2.25;;
22138;SDS011;25815;52.582;13.408;2023-03-24T00:29:07;3.72;;;2.17;;
22138;SDS011;25815;52.582;13.408;2023-03-24T00:31:33;4.38;;;2.25;;
22138;SDS011;25815;52.582;13.408;2023-03-24T00:34:03;2.40;;;2.17;;
22138;SDS011;25815;52.582;13.408;2023-03-24T00:36:30;3.53;;;2.20;;
22138;SDS011;25815;52.582;13.408;2023-03-24T00:38:56;2.72;;;2.08;;
22138;SDS011;25815;52.582;13.408;2023-03-24T00:41:22;3.78;;;2.13;;
22138;SDS011;25815;52.582;13.408;2023-03-24T00:43:52;2.95;;;1.77;;
22138;SDS011;25815;52.582;13.408;2023-03-24T00:46:18;4.82;;;2.33;;
22138;SDS011;25815;52.582;13.408;2023-03-24T00:48:54;4.78;;;2.25;;
22138;SDS011;25815;52.582;13.408;2023-03-24T00:51:26;2.80;;;2.17;;
22138;SDS011;25815;52.582;13.408;2023-03-24T00:53:52;3.08;;;2.05;;
22138;SDS011;25815;52.582;13.408;2023-03-24T00:56:22;2.63;;;1.85;;
22138;SDS011;25815;52.582;13.408;2023-03-24T00:58:48;3.53;;;1.80;;
22138;SDS011;25815;52.582;13.408;2023-03-24T01:01:14;2.50;;;2.03;;
22138;SDS011;25815;52.582;13.408;2023-03-24T01:03:40;4.22;;;2.05;;
22138;SDS011;25815;52.582;13.408;2023-03-24T01:06:12;4.03;;;2.15;;
22138;SDS011;25815;52.582;13.408;2023-03-24T01:08:38;4.85;;;2.20;;
22138;SDS011;25815;52.582;13.408;2023-03-24T01:11:04;2.67;;;1.77;;
22138;SDS011;25815;52.582;13.408;2023-03-24T01:13:30;3.33;;;1.90;;
22138;SDS011;25815;52.582;13.408;2023-03-24T01:15:58;2.65;;;2.08;;
22138;SDS011;25815;52.582;13.408;2023-03-24T01:18:24;2.47;;;1.90;;
22138;SDS011;25815;52.582;13.408;2023-03-24T01:20:51;3.55;;;1.85;;
22138;SDS011;25815;52.582;13.408;2023-03-24T01:23:20;2.25;;;1.70;;
22138;SDS011;25815;52.582;13.408;2023-03-24T01:25:47;3.08;;;1.73;;
22138;SDS011;25815;52.582;13.408;2023-03-24T01:28:14;3.00;;;1.80;;
22138;SDS011;25815;52.582;13.408;2023-03-24T01:30:41;1.98;;;1.63;;
22138;SDS011;25815;52.582;13.408;2023-03-24T01:33:07;3.08;;;1.83;;
22138;SDS011;25815;52.582;13.408;2023-03-24T01:35:34;2.05;;;1.67;;
22138;SDS011;25815;52.582;13.408;2023-03-24T01:38:01;3.22;;;1.80;;
22138;SDS011;25815;52.582;13.408;2023-03-24T01:40:30;3.50;;;1.70;;
22138;SDS011;25815;52.582;13.408;2023-03-24T01:42:56;3.42;;;1.50;;
22138;SDS011;25815;52.582;13.408;2023-03-24T01:48:01;2.65;;;1.88;;
22138;SDS011;25815;52.582;13.408;2023-03-24T01:50:27;2.92;;;1.80;;
22138;SDS011;25815;52.582;13.408;2023-03-24T01:52:54;2.80;;;1.90;;
22138;SDS011;25815;52.582;13.408;2023-03-24T01:55:20;1.90;;;1.63;;
22138;SDS011;25815;52.582;13.408;2023-03-24T01:57:47;2.53;;;1.70;;
22138;SDS011;25815;52.582;13.408;2023-03-24T02:00:14;2.95;;;1.90;;
22138;SDS011;25815;52.582;13.408;2023-03-24T02:02:43;2.75;;;1.95;;
22138;SDS011;25815;52.582;13.408;2023-03-24T02:05:10;3.13;;;2.00;;
22138;SDS011;25815;52.582;13.408;2023-03-24T02:07:38;2.90;;;1.75;;
22138;SDS011;25815;52.582;13.408;2023-03-24T02:10:07;2.38;;;1.85;;
22138;SDS011;25815;52.582;13.408;2023-03-24T02:12:34;2.65;;;1.70;;
22138;SDS011;25815;52.582;13.408;2023-03-24T02:15:01;3.35;;;2.15;;
22138;SDS011;25815;52.582;13.408;2023-03-24T02:17:35;2.45;;;1.80;;
22138;SDS011;25815;52.582;13.408;2023-03-24T02:27:36;3.17;;;1.85;;
22138;SDS011;25815;52.582;13.408;2023-03-24T02:40:21;2.67;;;1.92;;
22138;SDS011;25815;52.582;13.408;2023-03-24T02:45:23;3.42;;;2.10;;
22138;SDS011;25815;52.582;13.408;2023-03-24T02:48:15;2.88;;;2.10;;
22138;SDS011;25815;52.582;13.408;2023-03-24T02:50:46;2.92;;;1.85;;
22138;SDS011;25815;52.582;13.408;2023-03-24T02:53:23;3.25;;;2.00;;
22138;SDS011;25815;52.582;13.408;2023-03-24T02:55:54;3.08;;;2.10;;
22138;SDS011;25815;52.582;13.408;2023-03-24T02:58:23;1.83;;;1.55;;
22138;SDS011;25815;52.582;13.408;2023-03-24T03:00:54;3.60;;;1.90;;
22138;SDS011;25815;52.582;13.408;2023-03-24T03:03:37;3.63;;;1.90;;
22138;SDS011;25815;52.582;13.408;2023-03-24T03:06:06;3.53;;;2.00;;
22138;SDS011;25815;52.582;13.408;2023-03-24T03:08:34;2.30;;;2.08;;
22138;SDS011;25815;52.582;13.408;2023-03-24T03:11:02;3.78;;;2.20;;
22138;SDS011;25815;52.582;13.408;2023-03-24T03:13:30;5.40;;;1.70;;
22138;SDS011;25815;52.582;13.408;2023-03-24T03:15:58;3.33;;;1.90;;
22138;SDS011;25815;52.582;13.408;2023-03-24T03:18:28;3.05;;;1.90;;
22138;SDS011;25815;52.582;13.408;2023-03-24T03:20:59;2.95;;;1.88;;
22138;SDS011;25815;52.582;13.408;2023-03-24T03:23:32;3.67;;;2.25;;
22138;SDS011;25815;52.582;13.408;2023-03-24T03:26:01;5.47;;;2.08;;
22138;SDS011;25815;52.582;13.408;2023-03-24T03:28:31;3.10;;;1.85;;
22138;SDS011;25815;52.582;13.408;2023-03-24T03:30:58;3.90;;;1.73;;
22138;SDS011;25815;52.582;13.408;2023-03-24T03:33:29;2.13;;;1.73;;
22138;SDS011;25815;52.582;13.408;2023-03-24T03:36:03;2.47;;;1.70;;
22138;SDS011;25815;52.582;13.408;2023-03-24T03:38:44;4.35;;;2.10;;
22138;SDS011;25815;52.582;13.408;2023-03-24T03:41:12;2.92;;;2.10;;
22138;SDS011;25815;52.582;13.408;2023-03-24T03:43:40;2.42;;;1.85;;
22138;SDS011;25815;52.582;13.408;2023-03-24T03:46:06;3.70;;;2.13;;
22138;SDS011;25815;52.582;13.408;2023-03-24T03:48:32;3.00;;;1.98;;
22138;SDS011;25815;52.582;13.408;2023-03-24T03:50:59;2.92;;;2.10;;
22138;SDS011;25815;52.582;13.408;2023-03-24T03:53:27;2.55;;;2.20;;
22138;SDS011;25815;52.582;13.408;2023-03-24T03:55:55;3.45;;;2.60;;
22138;SDS011;25815;52.582;13.408;2023-03-24T03:58:21;2.65;;;2.25;;
22138;SDS011;25815;52.582;13.408;2023-03-24T04:00:47;2.95;;;2.00;;
22138;SDS011;25815;52.582;13.408;2023-03-24T04:03:27;3.08;;;2.20;;
22138;SDS011;25815;52.582;13.408;2023-03-24T04:06:01;3.40;;;2.22;;
22138;SDS011;25815;52.582;13.408;2023-03-24T04:08:42;3.63;;;2.30;;
22138;SDS011;25815;52.582;13.408;2023-03-24T04:16:05;4.43;;;2.55;;
22138;SDS011;25815;52.582;13.408;2023-03-24T04:18:43;5.70;;;3.13;;
22138;SDS011;25815;52.582;13.408;2023-03-24T04:23:46;3.65;;;3.00;;
22138;SDS011;25815;52.582;13.408;2023-03-24T04:26:22;5.15;;;2.72;;
22138;SDS011;25815;52.582;13.408;2023-03-24T04:28:53;4.82;;;2.83;;
22138;SDS011;25815;52.582;13.408;2023-03-24T04:31:33;3.22;;;2.60;;
22138;SDS011;25815;52.582;13.408;2023-03-24T04:34:02;5.47;;;2.70;;
22138;SDS011;25815;52.582;13.408;2023-03-24T04:36:35;4.03;;;3.05;;
22138;SDS011;25815;52.582;13.408;2023-03-24T04:39:07;5.45;;;3.20;;
22138;SDS011;25815;52.582;13.408;2023-03-24T04:41:34;5.43;;;2.70;;
22138;SDS011;25815;52.582;13.408;2023-03-24T04:44:01;3.90;;;2.80;;
22138;SDS011;25815;52.582;13.408;2023-03-24T04:46:27;5.82;;;2.90;;
22138;SDS011;25815;52.582;13.408;2023-03-24T04:48:54;5.65;;;2.80;;
22138;SDS011;25815;52.582;13.408;2023-03-24T04:51:20;5.00;;;3.05;;
22138;SDS011;25815;52.582;13.408;2023-03-24T04:53:46;5.18;;;3.10;;
22138;SDS011;25815;52.582;13.408;2023-03-24T04:58:51;5.95;;;3.83;;
22138;SDS011;25815;52.582;13.408;2023-03-24T05:01:17;4.55;;;3.40;;
22138;SDS011;25815;52.582;13.408;2023-03-24T05:03:45;6.43;;;3.28;;
22138;SDS011;25815;52.582;13.408;2023-03-24T05:06:11;4.47;;;3.00;;
22138;SDS011;25815;52.582;13.408;2023-03-24T05:08:37;6.75;;;2.90;;
22138;SDS011;25815;52.582;13.408;2023-03-24T05:11:03;5.30;;;3.15;;
22138;SDS011;25815;52.582;13.408;2023-03-24T05:13:29;4.80;;;3.00;;
22138;SDS011;25815;52.582;13.408;2023-03-24T05:15:55;4.55;;;2.92;;
22138;SDS011;25815;52.582;13.408;2023-03-24T05:18:22;4.80;;;3.25;;
22138;SDS011;25815;52.582;13.408;2023-03-24T05:20:48;5.35;;;2.58;;
22138;SDS011;25815;52.582;13.408;2023-03-24T05:23:14;4.30;;;3.05;;
22138;SDS011;25815;52.582;13.408;2023-03-24T05:25:40;5.88;;;3.08;;
22138;SDS011;25815;52.582;13.408;2023-03-24T05:28:06;4.32;;;3.15;;
22138;SDS011;25815;52.582;13.408;2023-03-24T05:30:32;7.03;;;3.53;;
22138;SDS011;25815;52.582;13.408;2023-03-24T05:32:58;4.35;;;3.42;;
22138;SDS011;25815;52.582;13.408;2023-03-24T05:35:24;4.18;;;3.13;;
22138;SDS011;25815;52.582;13.408;2023-03-24T05:37:50;5.00;;;3.30;;
22138;SDS011;25815;52.582;13.408;2023-03-24T05:40:16;4.78;;;3.30;;
22138;SDS011;25815;52.582;13.408;2023-03-24T05:42:42;4.90;;;3.40;;
22138;SDS011;25815;52.582;13.408;2023-03-24T05:45:09;4.53;;;3.22;;
22138;SDS011;25815;52.582;13.408;2023-03-24T05:47:35;5.65;;;3.30;;
22138;SDS011;25815;52.582;13.408;2023-03-24T05:50:02;4.50;;;3.38;;
22138;SDS011;25815;52.582;13.408;2023-03-24T05:52:27;4.45;;;3.05;;
22138;SDS011;25815;52.582;13.408;2023-03-24T05:54:53;5.35;;;3.30;;
22138;SDS011;25815;52.582;13.408;2023-03-24T05:57:19;6.70;;;3.50;;
22138;SDS011;25815;52.582;13.408;2023-03-24T05:59:45;4.28;;;3.20;;
22138;SDS011;25815;52.582;13.408;2023-03-24T06:02:11;5.15;;;3.03;;
22138;SDS011;25815;52.582;13.408;2023-03-24T06:04:37;4.32;;;3.00;;
22138;SDS011;25815;52.582;13.408;2023-03-24T06:07:03;4.40;;;2.72;;
22138;SDS011;25815;52.582;13.408;2023-03-24T06:09:29;3.90;;;3.10;;
22138;SDS011;25815;52.582;13.408;2023-03-24T06:12:06;4.53;;;2.83;;
22138;SDS011;25815;52.582;13.408;2023-03-24T06:14:32;5.65;;;3.15;;
22138;SDS011;25815;52.582;13.408;2023-03-24T06:16:58;4.35;;;3.10;;
22138;SDS011;25815;52.582;13.408;2023-03-24T06:19:24;5.35;;;3.10;;
22138;SDS011;25815;52.582;13.408;2023-03-24T06:21:51;5.55;;;2.60;;
22138;SDS011;25815;52.582;13.408;2023-03-24T06:24:17;5.55;;;3.45;;
22138;SDS011;25815;52.582;13.408;2023-03-24T06:26:43;5.47;;;3.22;;
22138;SDS011;25815;52.582;13.408;2023-03-24T06:29:10;3.63;;;2.67;;
22138;SDS011;25815;52.582;13.408;2023-03-24T06:31:36;4.13;;;3.00;;
22138;SDS011;25815;52.582;13.408;2023-03-24T06:34:03;6.32;;;3.60;;
22138;SDS011;25815;52.582;13.408;2023-03-24T06:36:29;3.70;;;2.92;;
22138;SDS011;25815;52.582;13.408;2023-03-24T06:38:55;3.15;;;2.60;;
22138;SDS011;25815;52.582;13.408;2023-03-24T06:41:21;3.88;;;2.80;;
22138;SDS011;25815;52.582;13.408;2023-03-24T06:43:47;5.78;;;3.03;;
22138;SDS011;25815;52.582;13.408;2023-03-24T06:46:13;4.05;;;2.88;;
22138;SDS011;25815;52.582;13.408;2023-03-24T06:48:39;4.43;;;3.13;;
22138;SDS011;25815;52.582;13.408;2023-03-24T06:51:05;4.80;;;2.97;;
22138;SDS011;25815;52.582;13.408;2023-03-24T06:53:31;4.22;;;3.45;;
22138;SDS011;25815;52.582;13.408;2023-03-24T06:55:57;4.30;;;3.17;;
22138;SDS011;25815;52.582;13.408;2023-03-24T06:58:23;3.28;;;2.70;;
22138;SDS011;25815;52.582;13.408;2023-03-24T07:00:49;6.10;;;3.15;;
22138;SDS011;25815;52.582;13.408;2023-03-24T07:03:15;5.53;;;3.15;;
22138;SDS011;25815;52.582;13.408;2023-03-24T07:05:42;4.05;;;3.50;;
22138;SDS011;25815;52.582;13.408;2023-03-24T07:08:09;5.38;;;2.90;;
22138;SDS011;25815;52.582;13.408;2023-03-24T07:10:39;4.72;;;3.17;;
22138;SDS011;25815;52.582;13.408;2023-03-24T07:13:06;4.30;;;3.53;;
22138;SDS011;25815;52.582;13.408;2023-03-24T07:15:32;6.18;;;3.33;;
22138;SDS011;25815;52.582;13.408;2023-03-24T07:17:58;6.00;;;3.22;;
22138;SDS011;25815;52.582;13.408;2023-03-24T07:20:24;3.83;;;3.28;;
22138;SDS011;25815;52.582;13.408;2023-03-24T07:22:54;5.53;;;3.55;;
22138;SDS011;25815;52.582;13.408;2023-03-24T07:25:20;7.20;;;3.28;;
22138;SDS011;25815;52.582;13.408;2023-03-24T07:27:46;4.45;;;3.28;;
22138;SDS011;25815;52.582;13.408;2023-03-24T07:30:12;6.57;;;3.05;;
22138;SDS011;25815;52.582;13.408;2023-03-24T07:32:38;7.53;;;3.40;;
22138;SDS011;25815;52.582;13.408;2023-03-24T07:35:07;4.85;;;3.53;;
22138;SDS011;25815;52.582;13.408;2023-03-24T07:37:37;5.13;;;3.45;;
22138;SDS011;25815;52.582;13.408;2023-03-24T07:40:04;4.57;;;3.17;;
22138;SDS011;25815;52.582;13.408;2023-03-24T07:42:31;5.13;;;3.17;;
22138;SDS011;25815;52.582;13.408;2023-03-24T07:44:56;5.50;;;3.22;;
22138;SDS011;25815;52.582;13.408;2023-03-24T07:47:22;7.68;;;2.63;;
22138;SDS011;25815;52.582;13.408;2023-03-24T07:49:48;5.20;;;3.13;;
22138;SDS011;25815;52.582;13.408;2023-03-24T07:52:14;5.15;;;2.90;;
22138;SDS011;25815;52.582;13.408;2023-03-24T07:54:40;4.00;;;2.45;;
22138;SDS011;25815;52.582;13.408;2023-03-24T07:57:06;6.95;;;3.60;;
22138;SDS011;25815;52.582;13.408;2023-03-24T07:59:32;6.50;;;2.90;;
22138;SDS011;25815;52.582;13.408;2023-03-24T08:01:58;5.38;;;3.00;;
22138;SDS011;25815;52.582;13.408;2023-03-24T08:04:24;3.83;;;3.08;;
22138;SDS011;25815;52.582;13.408;2023-03-24T08:06:52;3.80;;;3.05;;
22138;SDS011;25815;52.582;13.408;2023-03-24T08:09:18;5.05;;;3.33;;
22138;SDS011;25815;52.582;13.408;2023-03-24T08:11:45;3.90;;;3.13;;
22138;SDS011;25815;52.582;13.408;2023-03-24T08:14:11;4.53;;;2.97;;
22138;SDS011;25815;52.582;13.408;2023-03-24T08:16:37;6.75;;;2.90;;
22138;SDS011;25815;52.582;13.408;2023-03-24T08:19:03;4.07;;;3.15;;
22138;SDS011;25815;52.582;13.408;2023-03-24T08:21:30;4.68;;;2.88;;
22138;SDS011;25815;52.582;13.408;2023-03-24T08:23:56;3.67;;;2.90;;
22138;SDS011;25815;52.582;13.408;2023-03-24T08:26:22;6.45;;;3.35;;
22138;SDS011;25815;52.582;13.408;2023-03-24T08:28:50;5.18;;;3.50;;
22138;SDS011;25815;52.582;13.408;2023-03-24T08:31:16;2.10;;;1.40;;
22138;SDS011;25815;52.582;13.408;2023-03-24T08:33:42;3.55;;;2.85;;
22138;SDS011;25815;52.582;13.408;2023-03-24T08:36:08;5.15;;;2.83;;
22138;SDS011;25815;52.582;13.408;2023-03-24T08:38:34;5.38;;;3.22;;
22138;SDS011;25815;52.582;13.408;2023-03-24T08:41:03;4.15;;;2.88;;
22138;SDS011;25815;52.582;13.408;2023-03-24T08:43:31;3.75;;;3.00;;
22138;SDS011;25815;52.582;13.408;2023-03-24T08:45:57;4.80;;;3.10;;
22138;SDS011;25815;52.582;13.408;2023-03-24T08:48:24;5.50;;;3.20;;
22138;SDS011;25815;52.582;13.408;2023-03-24T08:50:50;4.25;;;2.92;;
22138;SDS011;25815;52.582;13.408;2023-03-24T08:53:16;6.20;;;3.05;;
22138;SDS011;25815;52.582;13.408;2023-03-24T08:55:42;6.18;;;3.10;;
22138;SDS011;25815;52.582;13.408;2023-03-24T08:58:15;4.18;;;3.00;;
22138;SDS011;25815;52.582;13.408;2023-03-24T09:00:42;5.28;;;3.42;;
22138;SDS011;25815;52.582;13.408;2023-03-24T09:03:09;4.32;;;2.70;;
22138;SDS011;25815;52.582;13.408;2023-03-24T09:05:37;4.93;;;3.15;;
22138;SDS011;25815;52.582;13.408;2023-03-24T09:08:03;5.43;;;3.60;;
22138;SDS011;25815;52.582;13.408;2023-03-24T09:10:29;5.57;;;2.70;;
22138;SDS011;25815;52.582;13.408;2023-03-24T09:12:55;5.10;;;3.47;;
22138;SDS011;25815;52.582;13.408;2023-03-24T09:15:21;4.03;;;3.00;;
22138;SDS011;25815;52.582;13.408;2023-03-24T09:17:47;4.68;;;3.25;;
22138;SDS011;25815;52.582;13.408;2023-03-24T09:20:13;4.60;;;3.35;;
22138;SDS011;25815;52.582;13.408;2023-03-24T09:22:40;4.30;;;3.13;;
22138;SDS011;25815;52.582;13.408;2023-03-24T09:25:07;5.70;;;3.13;;
22138;SDS011;25815;52.582;13.408;2023-03-24T09:27:33;4.05;;;2.90;;
22138;SDS011;25815;52.582;13.408;2023-03-24T09:29:59;5.20;;;3.72;;
22138;SDS011;25815;52.582;13.408;2023-03-24T09:32:25;4.70;;;2.92;;
22138;SDS011;25815;52.582;13.408;2023-03-24T09:34:51;4.53;;;3.20;;
22138;SDS011;25815;52.582;13.408;2023-03-24T09:37:17;3.08;;;2.53;;
22138;SDS011;25815;52.582;13.408;2023-03-24T09:39:43;7.70;;;3.60;;
22138;SDS011;25815;52.582;13.408;2023-03-24T09:42:13;5.70;;;3.30;;
22138;SDS011;25815;52.582;13.408;2023-03-24T09:44:40;6.60;;;3.30;;
22138;SDS011;25815;52.582;13.408;2023-03-24T09:47:12;4.83;;;3.17;;
22138;SDS011;25815;52.582;13.408;2023-03-24T09:49:39;5.57;;;3.17;;
22138;SDS011;25815;52.582;13.408;2023-03-24T09:52:08;4.78;;;2.90;;
22138;SDS011;25815;52.582;13.408;2023-03-24T09:54:56;3.58;;;2.90;;
22138;SDS011;25815;52.582;13.408;2023-03-24T09:57:23;4.40;;;3.00;;
22138;SDS011;25815;52.582;13.408;2023-03-24T09:59:50;5.28;;;2.90;;
22138;SDS011;25815;52.582;13.408;2023-03-24T10:02:18;4.35;;;2.97;;
22138;SDS011;25815;52.582;13.408;2023-03-24T10:04:44;3.22;;;2.45;;
22138;SDS011;25815;52.582;13.408;2023-03-24T10:07:15;3.50;;;2.42;;
22138;SDS011;25815;52.582;13.408;2023-03-24T10:09:43;3.58;;;2.78;;
22138;SDS011;25815;52.582;13.408;2023-03-24T10:12:27;5.22;;;2.72;;
22138;SDS011;25815;52.582;13.408;2023-03-24T10:15:08;5.25;;;2.65;;
22138;SDS011;25815;52.582;13.408;2023-03-24T10:22:54;3.55;;;2.40;;
22138;SDS011;25815;52.582;13.408;2023-03-24T10:25:25;2.70;;;1.92;;
22138;SDS011;25815;52.582;13.408;2023-03-24T10:30:24;4.85;;;2.80;;
22138;SDS011;25815;52.582;13.408;2023-03-24T10:32:51;2.85;;;1.90;;
22138;SDS011;25815;52.582;13.408;2023-03-24T10:35:23;4.15;;;2.30;;
22138;SDS011;25815;52.582;13.408;2023-03-24T10:37:50;5.22;;;2.05;;
22138;SDS011;25815;52.582;13.408;2023-03-24T10:40:25;5.25;;;1.92;;
22138;SDS011;25815;52.582;13.408;2023-03-24T10:42:51;2.63;;;1.98;;
22138;SDS011;25815;52.582;13.408;2023-03-24T10:45:25;3.42;;;2.00;;
22138;SDS011;25815;52.582;13.408;2023-03-24T10:47:53;3.83;;;2.40;;
22138;SDS011;25815;52.582;13.408;2023-03-24T10:50:23;2.05;;;1.85;;
22138;SDS011;25815;52.582;13.408;2023-03-24T10:52:49;3.75;;;2.25;;
22138;SDS011;25815;52.582;13.408;2023-03-24T10:55:17;4.90;;;2.50;;
22138;SDS011;25815;52.582;13.408;2023-03-24T10:57:44;2.63;;;1.70;;
22138;SDS011;25815;52.582;13.408;2023-03-24T11:00:24;4.35;;;2.33;;
22138;SDS011;25815;52.582;13.408;2023-03-24T11:02:55;3.70;;;2.10;;
22138;SDS011;25815;52.582;13.408;2023-03-24T11:05:24;3.55;;;2.40;;
22138;SDS011;25815;52.582;13.408;2023-03-24T11:08:10;3.17;;;2.55;;
22138;SDS011;25815;52.582;13.408;2023-03-24T11:10:37;3.10;;;2.50;;
22138;SDS011;25815;52.582;13.408;2023-03-24T11:13:03;2.85;;;2.45;;
22138;SDS011;25815;52.582;13.408;2023-03-24T11:15:32;3.63;;;2.30;;
22138;SDS011;25815;52.582;13.408;2023-03-24T11:18:06;5.32;;;2.30;;
22138;SDS011;25815;52.582;13.408;2023-03-24T11:20:39;4.00;;;2.20;;
22138;SDS011;25815;52.582;13.408;2023-03-24T11:23:09;2.97;;;2.30;;
22138;SDS011;25815;52.582;13.408;2023-03-24T11:25:36;5.55;;;2.30;;
22138;SDS011;25815;52.582;13.408;2023-03-24T11:28:07;3.38;;;2.40;;
22138;SDS011;25815;52.582;13.408;2023-03-24T11:30:34;4.80;;;2.30;;
22138;SDS011;25815;52.582;13.408;2023-03-24T11:33:01;3.20;;;2.58;;
22138;SDS011;25815;52.582;13.408;2023-03-24T11:35:28;4.97;;;2.60;;
22138;SDS011;25815;52.582;13.408;2023-03-24T11:37:55;3.22;;;2.55;;
22138;SDS011;25815;52.582;13.408;2023-03-24T11:40:22;2.72;;;2.08;;
22138;SDS011;25815;52.582;13.408;2023-03-24T11:42:51;3.67;;;2.40;;
22138;SDS011;25815;52.582;13.408;2023-03-24T11:45:25;2.65;;;2.20;;
22138;SDS011;25815;52.582;13.408;2023-03-24T11:47:56;2.83;;;2.20;;
22138;SDS011;25815;52.582;13.408;2023-03-24T11:50:24;3.15;;;2.42;;
22138;SDS011;25815;52.582;13.408;2023-03-24T11:55:23;2.40;;;1.77;;
22138;SDS011;25815;52.582;13.408;2023-03-24T11:58:00;3.35;;;2.15;;
22138;SDS011;25815;52.582;13.408;2023-03-24T12:00:36;3.67;;;2.13;;
22138;SDS011;25815;52.582;13.408;2023-03-24T12:05:41;2.90;;;2.20;;
22138;SDS011;25815;52.582;13.408;2023-03-24T12:08:19;3.72;;;2.63;;
22138;SDS011;25815;52.582;13.408;2023-03-24T12:13:38;3.67;;;1.85;;
22138;SDS011;25815;52.582;13.408;2023-03-24T12:23:37;3.30;;;2.00;;
22138;SDS011;25815;52.582;13.408;2023-03-24T12:26:10;5.50;;;2.10;;
22138;SDS011;25815;52.582;13.408;2023-03-24T12:28:50;3.63;;;1.92;;
22138;SDS011;25815;52.582;13.408;2023-03-24T12:33:57;1.90;;;1.50;;
22138;SDS011;25815;52.582;13.408;2023-03-24T12:36:34;2.65;;;1.60;;
22138;SDS011;25815;52.582;13.408;2023-03-24T12:39:07;2.63;;;1.55;;
22138;SDS011;25815;52.582;13.408;2023-03-24T12:46:50;1.50;;;1.23;;
22138;SDS011;25815;52.582;13.408;2023-03-24T12:49:25;4.30;;;1.92;;
22138;SDS011;25815;52.582;13.408;2023-03-24T12:51:58;2.60;;;1.25;;
22138;SDS011;25815;52.582;13.408;2023-03-24T12:54:41;3.47;;;1.85;;
22138;SDS011;25815;52.582;13.408;2023-03-24T12:57:10;2.05;;;1.23;;
22138;SDS011;25815;52.582;13.408;2023-03-24T13:04:36;2.75;;;1.20;;
22138;SDS011;25815;52.582;13.408;2023-03-24T13:07:12;2.67;;;1.00;;
22138;SDS011;25815;52.582;13.408;2023-03-24T13:09:50;1.80;;;1.15;;
22138;SDS011;25815;52.582;13.408;2023-03-24T13:17:31;2.20;;;0.95;;
22138;SDS011;25815;52.582;13.408;2023-03-24T13:19:58;4.43;;;1.40;;
22138;SDS011;25815;52.582;13.408;2023-03-24T13:22:25;1.92;;;1.10;;
22138;SDS011;25815;52.582;13.408;2023-03-24T13:24:52;1.40;;;1.00;;
22138;SDS011;25815;52.582;13.408;2023-03-24T13:30:19;1.67;;;0.85;;
22138;SDS011;25815;52.582;13.408;2023-03-24T13:32:51;1.98;;;1.05;;
22138;SDS011;25815;52.582;13.408;2023-03-24T13:35:28;1.38;;;0.82;;
22138;SDS011;25815;52.582;13.408;2023-03-24T13:40:31;1.65;;;0.80;;
22138;SDS011;25815;52.582;13.408;2023-03-24T13:43:06;1.95;;;0.90;;
22138;SDS011;25815;52.582;13.408;2023-03-24T13:45:38;2.72;;;0.80;;
22138;SDS011;25815;52.582;13.408;2023-03-24T13:53:19;2.08;;;0.70;;
22138;SDS011;25815;52.582;13.408;2023-03-24T13:55:51;2.10;;;0.80;;
22138;SDS011;25815;52.582;13.408;2023-03-24T13:58:22;3.35;;;0.88;;
22138;SDS011;25815;52.582;13.408;2023-03-24T14:03:32;2.85;;;1.00;;
22138;SDS011;25815;52.582;13.408;2023-03-24T14:06:01;2.28;;;0.70;;
22138;SDS011;25815;52.582;13.408;2023-03-24T14:14:06;1.10;;;0.60;;
22138;SDS011;25815;52.582;13.408;2023-03-24T14:19:08;4.53;;;0.90;;
22138;SDS011;25815;52.582;13.408;2023-03-24T14:21:42;6.65;;;1.58;;
22138;SDS011;25815;52.582;13.408;2023-03-24T14:24:22;2.58;;;1.10;;
22138;SDS011;25815;52.582;13.408;2023-03-24T14:26:49;1.98;;;0.93;;
22138;SDS011;25815;52.582;13.408;2023-03-24T14:29:49;2.83;;;1.00;;
22138;SDS011;25815;52.582;13.408;2023-03-24T14:32:11;4.85;;;0.85;;
22138;SDS011;25815;52.582;13.408;2023-03-24T14:34:47;1.83;;;0.70;;
22138;SDS011;25815;52.582;13.408;2023-03-24T14:37:14;5.93;;;0.90;;
22138;SDS011;25815;52.582;13.408;2023-03-24T14:39:42;2.90;;;0.80;;
22138;SDS011;25815;52.582;13.408;2023-03-24T14:42:24;3.45;;;1.15;;
22138;SDS011;25815;52.582;13.408;2023-03-24T14:44:51;1.90;;;0.95;;
22138;SDS011;25815;52.582;13.408;2023-03-24T14:47:18;2.78;;;0.85;;
22138;SDS011;25815;52.582;13.408;2023-03-24T14:49:46;4.82;;;1.30;;
22138;SDS011;25815;52.582;13.408;2023-03-24T14:52:18;1.88;;;0.95;;
22138;SDS011;25815;52.582;13.408;2023-03-24T14:54:47;3.70;;;1.00;;
22138;SDS011;25815;52.582;13.408;2023-03-24T14:57:23;3.08;;;1.10;;
22138;SDS011;25815;52.582;13.408;2023-03-24T15:00:14;3.22;;;0.85;;
22138;SDS011;25815;52.582;13.408;2023-03-24T15:05:15;2.25;;;0.93;;
22138;SDS011;25815;52.582;13.408;2023-03-24T15:07:43;2.63;;;0.82;;
22138;SDS011;25815;52.582;13.408;2023-03-24T15:10:13;2.03;;;0.73;;
22138;SDS011;25815;52.582;13.408;2023-03-24T15:12:43;4.07;;;0.82;;
22138;SDS011;25815;52.582;13.408;2023-03-24T15:15:16;2.92;;;0.80;;
22138;SDS011;25815;52.582;13.408;2023-03-24T15:17:42;3.75;;;0.80;;
22138;SDS011;25815;52.582;13.408;2023-03-24T15:20:19;2.42;;;0.90;;
22138;SDS011;25815;52.582;13.408;2023-03-24T15:22:45;5.22;;;1.00;;
22138;SDS011;25815;52.582;13.408;2023-03-24T15:25:12;4.43;;;0.93;;
22138;SDS011;25815;52.582;13.408;2023-03-24T15:27:39;2.25;;;0.93;;
22138;SDS011;25815;52.582;13.408;2023-03-24T15:30:05;2.45;;;0.65;;
22138;SDS011;25815;52.582;13.408;2023-03-24T15:32:31;2.35;;;0.82;;
22138;SDS011;25815;52.582;13.408;2023-03-24T15:35:03;5.28;;;0.80;;
22138;SDS011;25815;52.582;13.408;2023-03-24T15:37:39;2.20;;;0.93;;
22138;SDS011;25815;52.582;13.408;2023-03-24T15:42:55;5.15;;;1.00;;
22138;SDS011;25815;52.582;13.408;2023-03-24T15:45:31;1.98;;;0.80;;
22138;SDS011;25815;52.582;13.408;2023-03-24T15:47:58;2.00;;;0.80;;
22138;SDS011;25815;52.582;13.408;2023-03-24T15:53:05;3.03;;;0.80;;
22138;SDS011;25815;52.582;13.408;2023-03-24T15:55:35;5.38;;;1.17;;
22138;SDS011;25815;52.582;13.408;2023-03-24T16:01:00;3.92;;;1.17;;
22138;SDS011;25815;52.582;13.408;2023-03-24T16:03:28;10.13;;;2.22;;
22138;SDS011;25815;52.582;13.408;2023-03-24T16:05:54;4.88;;;1.20;;
22138;SDS011;25815;52.582;13.408;2023-03-24T16:08:27;3.58;;;1.13;;
22138;SDS011;25815;52.582;13.408;2023-03-24T16:10:58;4.75;;;1.15;;
22138;SDS011;25815;52.582;13.408;2023-03-24T16:13:25;4.65;;;1.20;;
22138;SDS011;25815;52.582;13.408;2023-03-24T16:16:05;2.92;;;1.00;;
22138;SDS011;25815;52.582;13.408;2023-03-24T16:18:33;7.38;;;1.45;;
22138;SDS011;25815;52.582;13.408;2023-03-24T16:21:00;6.13;;;1.20;;
22138;SDS011;25815;52.582;13.408;2023-03-24T16:23:26;2.58;;;1.02;;
22138;SDS011;25815;52.582;13.408;2023-03-24T16:25:52;9.68;;;1.48;;
22138;SDS011;25815;52.582;13.408;2023-03-24T16:28:19;8.23;;;1.15;;
22138;SDS011;25815;52.582;13.408;2023-03-24T16:30:47;4.68;;;1.10;;